sensor_id;sensor_type;location;lat;lon;timestamp;temperature;humidity
66871;DHT22;53780;44.998;9.926;2023-08-31T00:01:36;20.03;65.65
66871;DHT22;53780;44.998;9.926;2023-08-31T00:04:41;20.01;65.69
66871;DHT22;53780;44.998;9.926;2023-08-31T00:07:45;20.04;65.77
66871;DHT22;53780;44.998;9.926;2023-08-31T00:10:57;20.03;65.77
66871;DHT22;53780;44.998;9.926;2023-08-31T00:14:01;19.98;66.02
66871;DHT22;53780;44.998;9.926;2023-08-31T00:17:05;19.94;66.20
66871;DHT22;53780;44.998;9.926;2023-08-31T00:20:09;19.91;66.14
66871;DHT22;53780;44.998;9.926;2023-08-31T00:23:15;19.87;66.32
66871;DHT22;53780;44.998;9.926;2023-08-31T00:26:19;19.87;66.90
66871;DHT22;53780;44.998;9.926;2023-08-31T00:29:26;19.86;66.86
66871;DHT22;53780;44.998;9.926;2023-08-31T00:32:30;19.89;67.22
66871;DHT22;53780;44.998;9.926;2023-08-31T00:35:34;19.87;67.22
66871;DHT22;53780;44.998;9.926;2023-08-31T00:38:38;19.86;67.30
66871;DHT22;53780;44.998;9.926;2023-08-31T00:41:42;19.83;67.49
66871;DHT22;53780;44.998;9.926;2023-08-31T00:44:48;19.81;67.24
66871;DHT22;53780;44.998;9.926;2023-08-31T00:47:52;19.83;67.04
66871;DHT22;53780;44.998;9.926;2023-08-31T00:50:57;19.84;66.99
66871;DHT22;53780;44.998;9.926;2023-08-31T00:54:01;19.80;67.09
66871;DHT22;53780;44.998;9.926;2023-08-31T00:57:06;19.83;67.12
66871;DHT22;53780;44.998;9.926;2023-08-31T01:00:10;19.83;67.18
66871;DHT22;53780;44.998;9.926;2023-08-31T01:03:36;19.84;67.18
66871;DHT22;53780;44.998;9.926;2023-08-31T01:10:32;19.76;67.53
66871;DHT22;53780;44.998;9.926;2023-08-31T01:13:39;19.70;66.94
66871;DHT22;53780;44.998;9.926;2023-08-31T01:16:48;19.67;67.07
66871;DHT22;53780;44.998;9.926;2023-08-31T01:19:54;19.58;67.43
66871;DHT22;53780;44.998;9.926;2023-08-31T01:23:02;19.41;67.99
66871;DHT22;53780;44.998;9.926;2023-08-31T01:26:11;19.39;68.21
66871;DHT22;53780;44.998;9.926;2023-08-31T01:29:15;19.32;68.17
66871;DHT22;53780;44.998;9.926;2023-08-31T01:32:19;19.32;68.33
66871;DHT22;53780;44.998;9.926;2023-08-31T01:35:23;19.29;68.89
66871;DHT22;53780;44.998;9.926;2023-08-31T01:38:30;19.28;68.83
66871;DHT22;53780;44.998;9.926;2023-08-31T01:41:37;19.28;68.78
66871;DHT22;53780;44.998;9.926;2023-08-31T01:44:41;19.26;68.86
66871;DHT22;53780;44.998;9.926;2023-08-31T01:47:46;19.28;68.73
66871;DHT22;53780;44.998;9.926;2023-08-31T01:50:50;19.28;68.98
66871;DHT22;53780;44.998;9.926;2023-08-31T01:53:54;19.25;69.76
66871;DHT22;53780;44.998;9.926;2023-08-31T01:56:58;19.28;69.45
66871;DHT22;53780;44.998;9.926;2023-08-31T02:00:02;19.25;69.54
66871;DHT22;53780;44.998;9.926;2023-08-31T02:03:18;19.24;69.57
66871;DHT22;53780;44.998;9.926;2023-08-31T02:06:22;19.29;69.16
66871;DHT22;53780;44.998;9.926;2023-08-31T02:09:26;19.26;69.30
66871;DHT22;53780;44.998;9.926;2023-08-31T02:12:29;19.26;68.98
66871;DHT22;53780;44.998;9.926;2023-08-31T02:15:33;19.29;69.28
66871;DHT22;53780;44.998;9.926;2023-08-31T02:18:37;19.22;68.82
66871;DHT22;53780;44.998;9.926;2023-08-31T02:21:40;19.22;68.94
66871;DHT22;53780;44.998;9.926;2023-08-31T02:24:44;19.25;68.85
66871;DHT22;53780;44.998;9.926;2023-08-31T02:27:48;19.25;69.08
66871;DHT22;53780;44.998;9.926;2023-08-31T02:31:00;19.18;69.10
66871;DHT22;53780;44.998;9.926;2023-08-31T02:34:08;19.21;69.13
66871;DHT22;53780;44.998;9.926;2023-08-31T02:37:12;19.16;69.16
66871;DHT22;53780;44.998;9.926;2023-08-31T02:40:15;19.15;69.15
66871;DHT22;53780;44.998;9.926;2023-08-31T02:43:19;19.15;69.21
66871;DHT22;53780;44.998;9.926;2023-08-31T02:46:26;19.15;69.28
66871;DHT22;53780;44.998;9.926;2023-08-31T02:49:30;19.10;69.20
66871;DHT22;53780;44.998;9.926;2023-08-31T02:52:33;19.03;68.95
66871;DHT22;53780;44.998;9.926;2023-08-31T02:55:37;18.97;68.85
66871;DHT22;53780;44.998;9.926;2023-08-31T02:58:41;18.93;68.95
66871;DHT22;53780;44.998;9.926;2023-08-31T03:01:45;18.91;68.97
66871;DHT22;53780;44.998;9.926;2023-08-31T03:04:52;18.81;68.95
66871;DHT22;53780;44.998;9.926;2023-08-31T03:07:56;18.73;68.92
66871;DHT22;53780;44.998;9.926;2023-08-31T03:11:02;18.68;67.97
66871;DHT22;53780;44.998;9.926;2023-08-31T03:14:06;18.68;68.58
66871;DHT22;53780;44.998;9.926;2023-08-31T03:17:10;18.70;69.31
66871;DHT22;53780;44.998;9.926;2023-08-31T03:20:14;18.68;69.95
66871;DHT22;53780;44.998;9.926;2023-08-31T03:23:19;18.63;69.99
66871;DHT22;53780;44.998;9.926;2023-08-31T03:26:22;18.57;70.04
66871;DHT22;53780;44.998;9.926;2023-08-31T03:29:27;18.59;70.08
66871;DHT22;53780;44.998;9.926;2023-08-31T03:32:33;18.60;70.11
66871;DHT22;53780;44.998;9.926;2023-08-31T03:35:36;18.56;70.18
66871;DHT22;53780;44.998;9.926;2023-08-31T03:38:40;18.57;70.15
66871;DHT22;53780;44.998;9.926;2023-08-31T03:41:44;18.53;70.60
66871;DHT22;53780;44.998;9.926;2023-08-31T03:44:48;18.48;71.09
66871;DHT22;53780;44.998;9.926;2023-08-31T03:47:53;18.45;71.19
66871;DHT22;53780;44.998;9.926;2023-08-31T03:50:57;18.46;70.95
66871;DHT22;53780;44.998;9.926;2023-08-31T03:54:01;18.42;71.48
66871;DHT22;53780;44.998;9.926;2023-08-31T03:57:05;18.46;71.75
66871;DHT22;53780;44.998;9.926;2023-08-31T04:00:10;18.43;71.74
66871;DHT22;53780;44.998;9.926;2023-08-31T04:03:19;18.40;72.05
66871;DHT22;53780;44.998;9.926;2023-08-31T04:06:24;18.39;72.23
66871;DHT22;53780;44.998;9.926;2023-08-31T04:09:28;18.40;72.40
66871;DHT22;53780;44.998;9.926;2023-08-31T04:12:32;18.33;72.55
66871;DHT22;53780;44.998;9.926;2023-08-31T04:15:36;18.33;72.85
66871;DHT22;53780;44.998;9.926;2023-08-31T04:18:40;18.32;72.56
66871;DHT22;53780;44.998;9.926;2023-08-31T04:21:44;18.30;72.41
66871;DHT22;53780;44.998;9.926;2023-08-31T04:24:48;18.32;72.70
66871;DHT22;53780;44.998;9.926;2023-08-31T04:27:51;18.32;73.03
66871;DHT22;53780;44.998;9.926;2023-08-31T04:30:55;18.32;73.10
66871;DHT22;53780;44.998;9.926;2023-08-31T04:33:59;18.29;73.39
66871;DHT22;53780;44.998;9.926;2023-08-31T04:37:03;18.29;73.93
66871;DHT22;53780;44.998;9.926;2023-08-31T04:40:08;18.26;74.09
66871;DHT22;53780;44.998;9.926;2023-08-31T04:43:13;18.25;75.00
66871;DHT22;53780;44.998;9.926;2023-08-31T04:46:16;18.24;75.51
66871;DHT22;53780;44.998;9.926;2023-08-31T04:49:20;18.26;75.59
66871;DHT22;53780;44.998;9.926;2023-08-31T04:52:25;18.28;75.86
66871;DHT22;53780;44.998;9.926;2023-08-31T04:55:28;18.29;76.38
66871;DHT22;53780;44.998;9.926;2023-08-31T04:58:32;18.30;75.91
66871;DHT22;53780;44.998;9.926;2023-08-31T05:01:36;18.32;75.73
66871;DHT22;53780;44.998;9.926;2023-08-31T05:04:40;18.32;75.79
66871;DHT22;53780;44.998;9.926;2023-08-31T05:07:44;18.32;76.09
66871;DHT22;53780;44.998;9.926;2023-08-31T05:10:47;18.36;76.34
66871;DHT22;53780;44.998;9.926;2023-08-31T05:13:51;18.39;76.50
66871;DHT22;53780;44.998;9.926;2023-08-31T05:16:55;18.43;76.18
66871;DHT22;53780;44.998;9.926;2023-08-31T05:20:00;18.46;76.13
66871;DHT22;53780;44.998;9.926;2023-08-31T05:23:03;18.53;76.04
66871;DHT22;53780;44.998;9.926;2023-08-31T05:26:07;18.56;76.14
66871;DHT22;53780;44.998;9.926;2023-08-31T05:29:11;18.64;76.30
66871;DHT22;53780;44.998;9.926;2023-08-31T05:32:15;18.70;76.11
66871;DHT22;53780;44.998;9.926;2023-08-31T05:35:19;18.74;76.16
66871;DHT22;53780;44.998;9.926;2023-08-31T05:38:23;18.76;76.56
66871;DHT22;53780;44.998;9.926;2023-08-31T05:41:27;18.80;76.45
66871;DHT22;53780;44.998;9.926;2023-08-31T05:44:31;18.81;76.29
66871;DHT22;53780;44.998;9.926;2023-08-31T05:47:35;18.84;76.74
66871;DHT22;53780;44.998;9.926;2023-08-31T05:50:39;18.91;76.69
66871;DHT22;53780;44.998;9.926;2023-08-31T05:53:43;18.98;76.37
66871;DHT22;53780;44.998;9.926;2023-08-31T05:56:46;19.05;76.33
66871;DHT22;53780;44.998;9.926;2023-08-31T05:59:51;19.03;76.11
66871;DHT22;53780;44.998;9.926;2023-08-31T06:02:55;19.04;76.27
66871;DHT22;53780;44.998;9.926;2023-08-31T06:05:59;19.04;75.80
66871;DHT22;53780;44.998;9.926;2023-08-31T06:09:04;19.07;75.29
66871;DHT22;53780;44.998;9.926;2023-08-31T06:12:09;19.11;75.46
66871;DHT22;53780;44.998;9.926;2023-08-31T06:15:13;19.16;75.63
66871;DHT22;53780;44.998;9.926;2023-08-31T06:18:18;19.19;75.91
66871;DHT22;53780;44.998;9.926;2023-08-31T06:21:22;19.28;76.11
66871;DHT22;53780;44.998;9.926;2023-08-31T06:24:26;19.35;76.39
66871;DHT22;53780;44.998;9.926;2023-08-31T06:27:30;19.45;76.47
66871;DHT22;53780;44.998;9.926;2023-08-31T06:30:34;19.52;76.07
66871;DHT22;53780;44.998;9.926;2023-08-31T06:33:38;19.65;75.80
66871;DHT22;53780;44.998;9.926;2023-08-31T06:36:42;19.84;75.23
66871;DHT22;53780;44.998;9.926;2023-08-31T06:39:45;19.98;74.86
66871;DHT22;53780;44.998;9.926;2023-08-31T06:42:49;20.07;74.52
66871;DHT22;53780;44.998;9.926;2023-08-31T06:45:53;20.18;74.42
66871;DHT22;53780;44.998;9.926;2023-08-31T06:48:57;20.39;74.14
66871;DHT22;53780;44.998;9.926;2023-08-31T06:52:01;20.62;73.90
66871;DHT22;53780;44.998;9.926;2023-08-31T06:55:06;20.89;72.96
66871;DHT22;53780;44.998;9.926;2023-08-31T06:58:10;21.11;72.78
66871;DHT22;53780;44.998;9.926;2023-08-31T07:01:14;21.39;72.29
66871;DHT22;53780;44.998;9.926;2023-08-31T07:04:18;21.76;71.56
66871;DHT22;53780;44.998;9.926;2023-08-31T07:07:21;22.03;70.24
66871;DHT22;53780;44.998;9.926;2023-08-31T07:10:25;22.29;69.42
66871;DHT22;53780;44.998;9.926;2023-08-31T07:13:29;22.52;68.47
66871;DHT22;53780;44.998;9.926;2023-08-31T07:16:33;22.76;68.05
66871;DHT22;53780;44.998;9.926;2023-08-31T07:19:36;23.10;66.14
66871;DHT22;53780;44.998;9.926;2023-08-31T07:22:41;23.40;64.97
66871;DHT22;53780;44.998;9.926;2023-08-31T07:25:45;23.72;64.30
66871;DHT22;53780;44.998;9.926;2023-08-31T07:28:49;24.05;62.55
66871;DHT22;53780;44.998;9.926;2023-08-31T07:31:53;24.37;62.03
66871;DHT22;53780;44.998;9.926;2023-08-31T07:34:56;24.67;60.04
66871;DHT22;53780;44.998;9.926;2023-08-31T07:38:00;24.95;60.01
66871;DHT22;53780;44.998;9.926;2023-08-31T07:41:04;25.22;59.15
66871;DHT22;53780;44.998;9.926;2023-08-31T07:44:08;25.43;58.81
66871;DHT22;53780;44.998;9.926;2023-08-31T07:47:12;25.60;57.68
66871;DHT22;53780;44.998;9.926;2023-08-31T07:50:16;25.70;57.39
66871;DHT22;53780;44.998;9.926;2023-08-31T07:53:20;25.85;56.57
66871;DHT22;53780;44.998;9.926;2023-08-31T07:56:23;26.14;55.95
66871;DHT22;53780;44.998;9.926;2023-08-31T07:59:27;26.35;54.80
66871;DHT22;53780;44.998;9.926;2023-08-31T08:02:30;26.60;54.84
66871;DHT22;53780;44.998;9.926;2023-08-31T08:05:34;26.80;53.83
66871;DHT22;53780;44.998;9.926;2023-08-31T08:08:38;26.93;53.90
66871;DHT22;53780;44.998;9.926;2023-08-31T08:11:42;27.27;53.56
66871;DHT22;53780;44.998;9.926;2023-08-31T08:14:45;27.53;51.52
66871;DHT22;53780;44.998;9.926;2023-08-31T08:17:49;27.74;52.20
66871;DHT22;53780;44.998;9.926;2023-08-31T08:20:53;27.97;50.59
66871;DHT22;53780;44.998;9.926;2023-08-31T08:23:57;28.17;50.77
66871;DHT22;53780;44.998;9.926;2023-08-31T08:27:00;28.40;50.42
66871;DHT22;53780;44.998;9.926;2023-08-31T08:30:05;28.73;50.00
66871;DHT22;53780;44.998;9.926;2023-08-31T08:33:09;28.86;49.86
66871;DHT22;53780;44.998;9.926;2023-08-31T08:36:13;29.00;47.87
66871;DHT22;53780;44.998;9.926;2023-08-31T08:39:16;29.20;48.34
66871;DHT22;53780;44.998;9.926;2023-08-31T08:42:23;29.38;47.00
66871;DHT22;53780;44.998;9.926;2023-08-31T08:45:37;29.53;45.53
66871;DHT22;53780;44.998;9.926;2023-08-31T08:48:42;29.57;45.97
66871;DHT22;53780;44.998;9.926;2023-08-31T08:51:47;29.78;45.61
66871;DHT22;53780;44.998;9.926;2023-08-31T08:54:51;29.85;46.07
66871;DHT22;53780;44.998;9.926;2023-08-31T08:57:58;30.00;45.20
66871;DHT22;53780;44.998;9.926;2023-08-31T09:01:03;30.02;44.74
66871;DHT22;53780;44.998;9.926;2023-08-31T09:04:09;30.10;44.40
66871;DHT22;53780;44.998;9.926;2023-08-31T09:07:13;30.16;43.85
66871;DHT22;53780;44.998;9.926;2023-08-31T09:10:17;30.41;44.90
66871;DHT22;53780;44.998;9.926;2023-08-31T09:13:20;30.54;42.66
66871;DHT22;53780;44.998;9.926;2023-08-31T09:16:30;30.60;42.75
66871;DHT22;53780;44.998;9.926;2023-08-31T09:19:34;30.68;43.05
66871;DHT22;53780;44.998;9.926;2023-08-31T09:22:42;30.93;42.70
66871;DHT22;53780;44.998;9.926;2023-08-31T09:25:49;31.23;41.48
66871;DHT22;53780;44.998;9.926;2023-08-31T09:28:53;31.34;41.58
66871;DHT22;53780;44.998;9.926;2023-08-31T09:31:57;31.26;40.83
66871;DHT22;53780;44.998;9.926;2023-08-31T09:35:01;30.93;41.56
66871;DHT22;53780;44.998;9.926;2023-08-31T09:38:08;30.64;43.25
66871;DHT22;53780;44.998;9.926;2023-08-31T09:41:12;30.74;43.24
66871;DHT22;53780;44.998;9.926;2023-08-31T09:44:18;30.85;41.47
66871;DHT22;53780;44.998;9.926;2023-08-31T09:47:22;30.93;41.72
66871;DHT22;53780;44.998;9.926;2023-08-31T09:50:29;30.81;41.76
66871;DHT22;53780;44.998;9.926;2023-08-31T09:53:36;30.67;42.49
66871;DHT22;53780;44.998;9.926;2023-08-31T09:56:42;30.40;42.11
66871;DHT22;53780;44.998;9.926;2023-08-31T09:59:47;30.40;42.19
66871;DHT22;53780;44.998;9.926;2023-08-31T10:02:50;30.45;43.05
66871;DHT22;53780;44.998;9.926;2023-08-31T10:05:55;30.55;43.36
66871;DHT22;53780;44.998;9.926;2023-08-31T10:09:01;30.75;42.84
66871;DHT22;53780;44.998;9.926;2023-08-31T10:12:06;30.79;41.88
66871;DHT22;53780;44.998;9.926;2023-08-31T10:15:11;30.76;42.57
66871;DHT22;53780;44.998;9.926;2023-08-31T10:18:15;30.72;42.63
66871;DHT22;53780;44.998;9.926;2023-08-31T10:21:20;30.74;42.20
66871;DHT22;53780;44.998;9.926;2023-08-31T10:25:02;30.76;42.52
66871;DHT22;53780;44.998;9.926;2023-08-31T10:28:22;30.81;41.53
66871;DHT22;53780;44.998;9.926;2023-08-31T10:31:31;30.81;41.52
66871;DHT22;53780;44.998;9.926;2023-08-31T10:34:36;30.75;41.23
66871;DHT22;53780;44.998;9.926;2023-08-31T10:37:43;30.61;41.61
66871;DHT22;53780;44.998;9.926;2023-08-31T10:44:19;30.65;41.69
66871;DHT22;53780;44.998;9.926;2023-08-31T10:47:37;30.55;41.76
66871;DHT22;53780;44.998;9.926;2023-08-31T10:50:41;30.48;41.55
66871;DHT22;53780;44.998;9.926;2023-08-31T10:53:46;30.53;41.99
66871;DHT22;53780;44.998;9.926;2023-08-31T11:00:13;30.44;40.66
66871;DHT22;53780;44.998;9.926;2023-08-31T11:03:17;30.31;40.64
66871;DHT22;53780;44.998;9.926;2023-08-31T11:06:21;30.36;41.34
66871;DHT22;53780;44.998;9.926;2023-08-31T11:09:28;30.41;41.19
66871;DHT22;53780;44.998;9.926;2023-08-31T11:12:33;30.44;41.57
66871;DHT22;53780;44.998;9.926;2023-08-31T11:15:37;30.68;41.11
66871;DHT22;53780;44.998;9.926;2023-08-31T11:18:42;30.78;40.44
66871;DHT22;53780;44.998;9.926;2023-08-31T11:21:46;30.82;40.72
66871;DHT22;53780;44.998;9.926;2023-08-31T11:24:50;30.99;40.88
66871;DHT22;53780;44.998;9.926;2023-08-31T11:27:58;31.30;39.83
66871;DHT22;53780;44.998;9.926;2023-08-31T11:31:02;31.63;39.28
66871;DHT22;53780;44.998;9.926;2023-08-31T11:34:12;31.92;38.65
66871;DHT22;53780;44.998;9.926;2023-08-31T11:37:17;32.05;38.15
66871;DHT22;53780;44.998;9.926;2023-08-31T11:40:26;31.91;38.27
66871;DHT22;53780;44.998;9.926;2023-08-31T11:43:30;31.49;39.68
66871;DHT22;53780;44.998;9.926;2023-08-31T11:46:35;31.19;40.53
66871;DHT22;53780;44.998;9.926;2023-08-31T11:49:41;30.98;41.22
66871;DHT22;53780;44.998;9.926;2023-08-31T11:52:45;30.84;39.35
66871;DHT22;53780;44.998;9.926;2023-08-31T11:55:53;30.68;41.36
66871;DHT22;53780;44.998;9.926;2023-08-31T11:58:57;30.60;40.97
66871;DHT22;53780;44.998;9.926;2023-08-31T12:02:01;30.34;39.84
66871;DHT22;53780;44.998;9.926;2023-08-31T12:05:05;30.12;40.80
66871;DHT22;53780;44.998;9.926;2023-08-31T12:08:08;29.93;40.63
66871;DHT22;53780;44.998;9.926;2023-08-31T12:11:12;29.69;40.51
66871;DHT22;53780;44.998;9.926;2023-08-31T12:14:23;29.54;41.81
66871;DHT22;53780;44.998;9.926;2023-08-31T12:17:27;29.43;41.53
66871;DHT22;53780;44.998;9.926;2023-08-31T12:20:31;29.41;41.63
66871;DHT22;53780;44.998;9.926;2023-08-31T12:23:36;29.37;41.54
66871;DHT22;53780;44.998;9.926;2023-08-31T12:26:40;29.30;41.65
66871;DHT22;53780;44.998;9.926;2023-08-31T12:29:44;29.26;41.89
66871;DHT22;53780;44.998;9.926;2023-08-31T12:32:47;29.20;41.71
66871;DHT22;53780;44.998;9.926;2023-08-31T12:35:51;29.20;42.80
66871;DHT22;53780;44.998;9.926;2023-08-31T12:38:55;29.18;42.48
66871;DHT22;53780;44.998;9.926;2023-08-31T12:41:58;29.17;42.12
66871;DHT22;53780;44.998;9.926;2023-08-31T12:45:03;29.11;41.90
66871;DHT22;53780;44.998;9.926;2023-08-31T12:48:09;29.06;42.61
66871;DHT22;53780;44.998;9.926;2023-08-31T12:51:13;28.99;42.50
66871;DHT22;53780;44.998;9.926;2023-08-31T12:54:17;28.96;42.88
66871;DHT22;53780;44.998;9.926;2023-08-31T12:57:21;28.95;42.43
66871;DHT22;53780;44.998;9.926;2023-08-31T13:00:25;28.88;42.73
66871;DHT22;53780;44.998;9.926;2023-08-31T13:03:29;28.84;42.57
66871;DHT22;53780;44.998;9.926;2023-08-31T13:06:32;28.78;43.09
66871;DHT22;53780;44.998;9.926;2023-08-31T13:09:36;28.80;43.80
66871;DHT22;53780;44.998;9.926;2023-08-31T13:12:40;28.78;43.53
66871;DHT22;53780;44.998;9.926;2023-08-31T13:15:46;28.83;44.12
66871;DHT22;53780;44.998;9.926;2023-08-31T13:18:49;28.80;43.89
66871;DHT22;53780;44.998;9.926;2023-08-31T13:21:53;28.78;43.73
66871;DHT22;53780;44.998;9.926;2023-08-31T13:24:57;28.78;43.35
66871;DHT22;53780;44.998;9.926;2023-08-31T13:28:00;28.76;43.59
66871;DHT22;53780;44.998;9.926;2023-08-31T13:31:04;28.68;43.16
66871;DHT22;53780;44.998;9.926;2023-08-31T13:34:08;28.58;43.28
66871;DHT22;53780;44.998;9.926;2023-08-31T13:37:13;28.49;43.77
66871;DHT22;53780;44.998;9.926;2023-08-31T13:40:17;28.48;44.35
66871;DHT22;53780;44.998;9.926;2023-08-31T13:43:21;28.41;44.13
66871;DHT22;53780;44.998;9.926;2023-08-31T13:46:26;28.35;45.48
66871;DHT22;53780;44.998;9.926;2023-08-31T13:49:30;28.24;44.81
66871;DHT22;53780;44.998;9.926;2023-08-31T13:52:34;28.17;45.79
66871;DHT22;53780;44.998;9.926;2023-08-31T13:55:38;28.13;47.06
66871;DHT22;53780;44.998;9.926;2023-08-31T13:58:42;28.10;46.62
66871;DHT22;53780;44.998;9.926;2023-08-31T14:01:46;28.06;46.70
66871;DHT22;53780;44.998;9.926;2023-08-31T14:04:49;28.00;46.89
66871;DHT22;53780;44.998;9.926;2023-08-31T14:07:53;27.96;46.85
66871;DHT22;53780;44.998;9.926;2023-08-31T14:10:57;27.87;48.50
66871;DHT22;53780;44.998;9.926;2023-08-31T14:14:05;27.77;54.35
66871;DHT22;53780;44.998;9.926;2023-08-31T14:17:13;27.45;55.30
66871;DHT22;53780;44.998;9.926;2023-08-31T14:20:17;27.08;53.11
66871;DHT22;53780;44.998;9.926;2023-08-31T14:23:20;26.88;56.13
66871;DHT22;53780;44.998;9.926;2023-08-31T14:26:24;26.67;57.69
66871;DHT22;53780;44.998;9.926;2023-08-31T14:29:28;26.50;58.65
66871;DHT22;53780;44.998;9.926;2023-08-31T14:32:32;26.42;58.61
66871;DHT22;53780;44.998;9.926;2023-08-31T14:35:37;26.33;59.17
66871;DHT22;53780;44.998;9.926;2023-08-31T14:38:41;26.31;60.65
66871;DHT22;53780;44.998;9.926;2023-08-31T14:41:45;26.36;60.96
66871;DHT22;53780;44.998;9.926;2023-08-31T14:44:49;26.33;60.30
66871;DHT22;53780;44.998;9.926;2023-08-31T14:47:53;26.29;62.19
66871;DHT22;53780;44.998;9.926;2023-08-31T14:50:56;26.18;61.87
66871;DHT22;53780;44.998;9.926;2023-08-31T14:54:02;26.18;61.32
66871;DHT22;53780;44.998;9.926;2023-08-31T14:57:06;26.05;61.95
66871;DHT22;53780;44.998;9.926;2023-08-31T15:00:10;26.01;62.36
66871;DHT22;53780;44.998;9.926;2023-08-31T15:03:15;25.98;62.63
66871;DHT22;53780;44.998;9.926;2023-08-31T15:06:19;25.92;63.18
66871;DHT22;53780;44.998;9.926;2023-08-31T15:09:24;25.88;62.10
66871;DHT22;53780;44.998;9.926;2023-08-31T15:12:27;25.87;61.72
66871;DHT22;53780;44.998;9.926;2023-08-31T15:15:31;25.85;62.22
66871;DHT22;53780;44.998;9.926;2023-08-31T15:18:35;25.77;62.39
66871;DHT22;53780;44.998;9.926;2023-08-31T15:21:38;25.78;62.50
66871;DHT22;53780;44.998;9.926;2023-08-31T15:24:42;25.69;62.51
66871;DHT22;53780;44.998;9.926;2023-08-31T15:27:46;25.64;62.59
66871;DHT22;53780;44.998;9.926;2023-08-31T15:30:50;25.64;62.82
66871;DHT22;53780;44.998;9.926;2023-08-31T15:33:53;25.63;63.48
66871;DHT22;53780;44.998;9.926;2023-08-31T15:36:57;25.67;64.06
66871;DHT22;53780;44.998;9.926;2023-08-31T15:40:01;25.70;64.13
66871;DHT22;53780;44.998;9.926;2023-08-31T15:43:05;25.67;63.71
66871;DHT22;53780;44.998;9.926;2023-08-31T15:46:08;25.62;63.11
66871;DHT22;53780;44.998;9.926;2023-08-31T15:49:12;25.51;63.14
66871;DHT22;53780;44.998;9.926;2023-08-31T15:52:16;25.40;63.71
66871;DHT22;53780;44.998;9.926;2023-08-31T15:55:20;25.42;63.28
66871;DHT22;53780;44.998;9.926;2023-08-31T15:58:23;25.40;63.49
66871;DHT22;53780;44.998;9.926;2023-08-31T16:01:30;25.40;63.68
66871;DHT22;53780;44.998;9.926;2023-08-31T16:04:34;25.35;64.65
66871;DHT22;53780;44.998;9.926;2023-08-31T16:07:38;25.37;64.99
66871;DHT22;53780;44.998;9.926;2023-08-31T16:10:44;25.39;64.21
66871;DHT22;53780;44.998;9.926;2023-08-31T16:13:48;25.45;63.98
66871;DHT22;53780;44.998;9.926;2023-08-31T16:16:51;25.50;63.06
66871;DHT22;53780;44.998;9.926;2023-08-31T16:19:56;25.54;61.67
66871;DHT22;53780;44.998;9.926;2023-08-31T16:23:00;25.51;62.17
66871;DHT22;53780;44.998;9.926;2023-08-31T16:26:04;25.51;62.79
66871;DHT22;53780;44.998;9.926;2023-08-31T16:29:08;25.51;61.93
66871;DHT22;53780;44.998;9.926;2023-08-31T16:32:13;25.54;61.87
66871;DHT22;53780;44.998;9.926;2023-08-31T16:35:17;25.51;61.12
66871;DHT22;53780;44.998;9.926;2023-08-31T16:38:21;25.51;61.38
66871;DHT22;53780;44.998;9.926;2023-08-31T16:41:25;25.47;61.84
66871;DHT22;53780;44.998;9.926;2023-08-31T16:44:29;25.50;60.75
66871;DHT22;53780;44.998;9.926;2023-08-31T16:47:34;25.54;61.19
66871;DHT22;53780;44.998;9.926;2023-08-31T16:50:37;25.56;61.74
66871;DHT22;53780;44.998;9.926;2023-08-31T16:53:42;25.51;61.18
66871;DHT22;53780;44.998;9.926;2023-08-31T16:56:46;25.53;60.43
66871;DHT22;53780;44.998;9.926;2023-08-31T16:59:52;25.51;60.69
66871;DHT22;53780;44.998;9.926;2023-08-31T17:02:56;25.45;61.49
66871;DHT22;53780;44.998;9.926;2023-08-31T17:05:59;25.45;61.54
66871;DHT22;53780;44.998;9.926;2023-08-31T17:09:04;25.36;60.95
66871;DHT22;53780;44.998;9.926;2023-08-31T17:12:10;25.36;61.83
66871;DHT22;53780;44.998;9.926;2023-08-31T17:15:13;25.32;61.73
66871;DHT22;53780;44.998;9.926;2023-08-31T17:18:17;25.27;61.50
66871;DHT22;53780;44.998;9.926;2023-08-31T17:21:21;25.26;62.85
66871;DHT22;53780;44.998;9.926;2023-08-31T17:24:25;25.22;62.81
66871;DHT22;53780;44.998;9.926;2023-08-31T17:27:28;25.20;63.21
66871;DHT22;53780;44.998;9.926;2023-08-31T17:30:32;25.16;63.66
66871;DHT22;53780;44.998;9.926;2023-08-31T17:33:36;25.12;63.96
66871;DHT22;53780;44.998;9.926;2023-08-31T17:36:40;25.07;64.36
66871;DHT22;53780;44.998;9.926;2023-08-31T17:39:45;25.02;64.83
66871;DHT22;53780;44.998;9.926;2023-08-31T17:42:48;24.95;65.94
66871;DHT22;53780;44.998;9.926;2023-08-31T17:45:52;24.94;66.27
66871;DHT22;53780;44.998;9.926;2023-08-31T17:48:56;24.92;66.28
66871;DHT22;53780;44.998;9.926;2023-08-31T17:52:01;24.88;66.41
66871;DHT22;53780;44.998;9.926;2023-08-31T17:55:06;24.84;66.53
66871;DHT22;53780;44.998;9.926;2023-08-31T17:58:10;24.80;66.89
66871;DHT22;53780;44.998;9.926;2023-08-31T18:01:14;24.75;67.12
66871;DHT22;53780;44.998;9.926;2023-08-31T18:04:18;24.72;67.13
66871;DHT22;53780;44.998;9.926;2023-08-31T18:07:22;24.68;67.20
66871;DHT22;53780;44.998;9.926;2023-08-31T18:10:25;24.61;67.57
66871;DHT22;53780;44.998;9.926;2023-08-31T18:13:29;24.56;67.33
66871;DHT22;53780;44.998;9.926;2023-08-31T18:16:33;24.50;67.08
66871;DHT22;53780;44.998;9.926;2023-08-31T18:19:37;24.47;67.47
66871;DHT22;53780;44.998;9.926;2023-08-31T18:22:41;24.41;67.81
66871;DHT22;53780;44.998;9.926;2023-08-31T18:25:46;24.37;68.02
66871;DHT22;53780;44.998;9.926;2023-08-31T18:28:53;24.32;68.02
66871;DHT22;53780;44.998;9.926;2023-08-31T18:32:07;24.27;67.96
66871;DHT22;53780;44.998;9.926;2023-08-31T18:35:11;24.22;67.97
66871;DHT22;53780;44.998;9.926;2023-08-31T18:38:14;24.16;67.94
66871;DHT22;53780;44.998;9.926;2023-08-31T18:41:18;24.09;68.25
66871;DHT22;53780;44.998;9.926;2023-08-31T18:44:22;24.06;68.33
66871;DHT22;53780;44.998;9.926;2023-08-31T18:47:28;24.02;68.38
66871;DHT22;53780;44.998;9.926;2023-08-31T18:50:32;23.95;68.72
66871;DHT22;53780;44.998;9.926;2023-08-31T18:53:35;23.94;68.67
66871;DHT22;53780;44.998;9.926;2023-08-31T18:56:39;23.92;68.93
66871;DHT22;53780;44.998;9.926;2023-08-31T18:59:44;23.84;69.12
66871;DHT22;53780;44.998;9.926;2023-08-31T19:02:49;23.85;69.08
66871;DHT22;53780;44.998;9.926;2023-08-31T19:05:53;23.79;69.23
66871;DHT22;53780;44.998;9.926;2023-08-31T19:08:57;23.78;69.27
66871;DHT22;53780;44.998;9.926;2023-08-31T19:12:01;23.77;69.50
66871;DHT22;53780;44.998;9.926;2023-08-31T19:15:05;23.71;69.39
66871;DHT22;53780;44.998;9.926;2023-08-31T19:18:09;23.68;69.04
66871;DHT22;53780;44.998;9.926;2023-08-31T19:21:12;23.64;67.93
66871;DHT22;53780;44.998;9.926;2023-08-31T19:24:16;23.60;66.07
66871;DHT22;53780;44.998;9.926;2023-08-31T19:27:20;23.62;65.00
66871;DHT22;53780;44.998;9.926;2023-08-31T19:30:24;23.60;64.21
66871;DHT22;53780;44.998;9.926;2023-08-31T19:33:28;23.60;63.18
66871;DHT22;53780;44.998;9.926;2023-08-31T19:36:31;23.54;61.82